sensor_id;sensor_type;location;lat;lon;timestamp;temperature;humidity
66594;DHT22;53450;42.584;23.366;2023-03-03T00:01:22;2.48;85.12
66594;DHT22;53450;42.584;23.366;2023-03-03T00:03:52;2.42;85.25
66594;DHT22;53450;42.584;23.366;2023-03-03T00:06:18;2.49;85.30
66594;DHT22;53450;42.584;23.366;2023-03-03T00:08:43;2.51;85.09
66594;DHT22;53450;42.584;23.366;2023-03-03T00:11:09;2.45;85.02
66594;DHT22;53450;42.584;23.366;2023-03-03T00:13:45;2.48;84.83
66594;DHT22;53450;42.584;23.366;2023-03-03T00:19:14;2.28;85.26
66594;DHT22;53450;42.584;23.366;2023-03-03T00:21:41;2.38;85.06
66594;DHT22;53450;42.584;23.366;2023-03-03T00:24:24;2.28;85.17
66594;DHT22;53450;42.584;23.366;2023-03-03T00:26:55;2.26;85.22
66594;DHT22;53450;42.584;23.366;2023-03-03T00:29:33;2.30;85.32
66594;DHT22;53450;42.584;23.366;2023-03-03T00:34:38;2.26;85.65
66594;DHT22;53450;42.584;23.366;2023-03-03T00:37:30;2.33;85.67
66594;DHT22;53450;42.584;23.366;2023-03-03T00:40:44;2.26;85.99
66594;DHT22;53450;42.584;23.366;2023-03-03T00:42:49;2.24;85.99
66594;DHT22;53450;42.584;23.366;2023-03-03T00:45:54;2.34;85.98
66594;DHT22;53450;42.584;23.366;2023-03-03T00:48:31;2.27;85.97
66594;DHT22;53450;42.584;23.366;2023-03-03T00:51:25;2.30;86.05
66594;DHT22;53450;42.584;23.366;2023-03-03T00:53:51;2.28;85.74
66594;DHT22;53450;42.584;23.366;2023-03-03T00:56:16;2.28;85.54
66594;DHT22;53450;42.584;23.366;2023-03-03T00:58:42;2.27;85.51
66594;DHT22;53450;42.584;23.366;2023-03-03T01:01:14;2.23;85.31
66594;DHT22;53450;42.584;23.366;2023-03-03T01:03:44;2.30;85.25
66594;DHT22;53450;42.584;23.366;2023-03-03T01:06:11;2.34;85.44
66594;DHT22;53450;42.584;23.366;2023-03-03T01:08:37;2.26;85.39
66594;DHT22;53450;42.584;23.366;2023-03-03T01:11:14;2.17;85.57
66594;DHT22;53450;42.584;23.366;2023-03-03T01:13:42;2.17;85.62
66594;DHT22;53450;42.584;23.366;2023-03-03T01:16:08;2.30;85.37
66594;DHT22;53450;42.584;23.366;2023-03-03T01:18:34;2.26;85.48
66594;DHT22;53450;42.584;23.366;2023-03-03T01:21:00;2.20;85.69
66594;DHT22;53450;42.584;23.366;2023-03-03T01:23:27;2.18;85.82
66594;DHT22;53450;42.584;23.366;2023-03-03T01:25:52;2.23;85.64
66594;DHT22;53450;42.584;23.366;2023-03-03T01:28:19;2.21;85.54
66594;DHT22;53450;42.584;23.366;2023-03-03T01:30:44;2.21;85.56
66594;DHT22;53450;42.584;23.366;2023-03-03T01:33:11;2.20;85.38
66594;DHT22;53450;42.584;23.366;2023-03-03T01:35:37;2.26;85.24
66594;DHT22;53450;42.584;23.366;2023-03-03T01:38:07;2.16;85.46
66594;DHT22;53450;42.584;23.366;2023-03-03T01:40:33;2.24;85.50
66594;DHT22;53450;42.584;23.366;2023-03-03T01:42:59;2.17;85.43
66594;DHT22;53450;42.584;23.366;2023-03-03T01:45:30;2.21;85.46
66594;DHT22;53450;42.584;23.366;2023-03-03T01:48:03;2.24;85.46
66594;DHT22;53450;42.584;23.366;2023-03-03T01:53:16;2.23;85.23
66594;DHT22;53450;42.584;23.366;2023-03-03T01:55:44;2.17;85.34
66594;DHT22;53450;42.584;23.366;2023-03-03T01:58:14;2.20;85.32
66594;DHT22;53450;42.584;23.366;2023-03-03T02:00:45;2.21;85.37
66594;DHT22;53450;42.584;23.366;2023-03-03T02:03:15;2.16;85.79
66594;DHT22;53450;42.584;23.366;2023-03-03T02:05:42;2.14;86.06
66594;DHT22;53450;42.584;23.366;2023-03-03T02:08:11;2.18;86.27
66594;DHT22;53450;42.584;23.366;2023-03-03T02:10:39;2.23;86.27
66594;DHT22;53450;42.584;23.366;2023-03-03T02:13:05;2.38;85.77
66594;DHT22;53450;42.584;23.366;2023-03-03T02:15:33;2.48;85.43
66594;DHT22;53450;42.584;23.366;2023-03-03T02:18:09;2.57;85.30
66594;DHT22;53450;42.584;23.366;2023-03-03T02:26:03;2.79;84.67
66594;DHT22;53450;42.584;23.366;2023-03-03T02:28:31;2.86;84.42
66594;DHT22;53450;42.584;23.366;2023-03-03T02:31:01;2.85;84.39
66594;DHT22;53450;42.584;23.366;2023-03-03T02:33:27;2.91;84.51
66594;DHT22;53450;42.584;23.366;2023-03-03T02:35:54;2.72;84.36
66594;DHT22;53450;42.584;23.366;2023-03-03T02:39:00;2.75;84.60
66594;DHT22;53450;42.584;23.366;2023-03-03T02:41:56;2.84;84.46
66594;DHT22;53450;42.584;23.366;2023-03-03T02:44:30;2.65;84.65
66594;DHT22;53450;42.584;23.366;2023-03-03T02:46:57;2.44;85.35
66594;DHT22;53450;42.584;23.366;2023-03-03T02:49:26;2.54;85.28
66594;DHT22;53450;42.584;23.366;2023-03-03T02:51:52;2.48;85.13
66594;DHT22;53450;42.584;23.366;2023-03-03T02:54:20;2.47;85.28
66594;DHT22;53450;42.584;23.366;2023-03-03T02:56:46;2.34;85.89
66594;DHT22;53450;42.584;23.366;2023-03-03T02:59:12;2.23;86.25
66594;DHT22;53450;42.584;23.366;2023-03-03T03:01:42;2.24;86.35
66594;DHT22;53450;42.584;23.366;2023-03-03T03:04:21;2.27;86.60
66594;DHT22;53450;42.584;23.366;2023-03-03T03:06:48;2.24;86.45
66594;DHT22;53450;42.584;23.366;2023-03-03T03:09:17;2.27;86.22
66594;DHT22;53450;42.584;23.366;2023-03-03T03:11:44;2.16;86.39
66594;DHT22;53450;42.584;23.366;2023-03-03T03:14:12;2.05;87.00
66594;DHT22;53450;42.584;23.366;2023-03-03T03:16:38;1.97;87.35
66594;DHT22;53450;42.584;23.366;2023-03-03T03:19:29;1.95;87.68
66594;DHT22;53450;42.584;23.366;2023-03-03T03:21:59;1.89;87.96
66594;DHT22;53450;42.584;23.366;2023-03-03T03:24:25;1.86;88.11
66594;DHT22;53450;42.584;23.366;2023-03-03T03:26:56;2.03;88.00
66594;DHT22;53450;42.584;23.366;2023-03-03T03:29:23;2.06;87.91
66594;DHT22;53450;42.584;23.366;2023-03-03T03:31:49;2.07;87.76
66594;DHT22;53450;42.584;23.366;2023-03-03T03:34:21;1.92;87.79
66594;DHT22;53450;42.584;23.366;2023-03-03T03:36:48;1.86;88.01
66594;DHT22;53450;42.584;23.366;2023-03-03T03:39:15;2.03;87.95
66594;DHT22;53450;42.584;23.366;2023-03-03T03:41:44;1.96;87.73
66594;DHT22;53450;42.584;23.366;2023-03-03T03:44:10;1.92;87.87
66594;DHT22;53450;42.584;23.366;2023-03-03T03:46:36;1.82;87.92
66594;DHT22;53450;42.584;23.366;2023-03-03T03:49:02;2.03;87.66
66594;DHT22;53450;42.584;23.366;2023-03-03T03:51:28;2.07;87.63
66594;DHT22;53450;42.584;23.366;2023-03-03T03:53:54;2.10;87.25
66594;DHT22;53450;42.584;23.366;2023-03-03T03:56:20;2.13;87.29
66594;DHT22;53450;42.584;23.366;2023-03-03T03:58:49;2.11;87.17
66594;DHT22;53450;42.584;23.366;2023-03-03T04:01:15;1.93;87.32
66594;DHT22;53450;42.584;23.366;2023-03-03T04:03:45;1.93;87.54
66594;DHT22;53450;42.584;23.366;2023-03-03T04:06:15;1.97;87.57
66594;DHT22;53450;42.584;23.366;2023-03-03T04:08:41;1.99;87.43
66594;DHT22;53450;42.584;23.366;2023-03-03T04:11:31;1.90;87.46
66594;DHT22;53450;42.584;23.366;2023-03-03T04:13:57;1.96;87.63
66594;DHT22;53450;42.584;23.366;2023-03-03T04:16:24;1.97;87.57
66594;DHT22;53450;42.584;23.366;2023-03-03T04:18:50;1.99;87.59
66594;DHT22;53450;42.584;23.366;2023-03-03T04:21:16;1.85;87.66
66594;DHT22;53450;42.584;23.366;2023-03-03T04:23:43;1.72;87.81
66594;DHT22;53450;42.584;23.366;2023-03-03T04:26:10;1.73;88.08
66594;DHT22;53450;42.584;23.366;2023-03-03T04:28:36;1.68;88.18
66594;DHT22;53450;42.584;23.366;2023-03-03T04:31:02;1.66;88.33
66594;DHT22;53450;42.584;23.366;2023-03-03T04:33:30;1.65;88.42
66594;DHT22;53450;42.584;23.366;2023-03-03T04:35:56;1.60;88.43
66594;DHT22;53450;42.584;23.366;2023-03-03T04:38:22;1.49;88.64
66594;DHT22;53450;42.584;23.366;2023-03-03T04:40:49;1.39;88.99
66594;DHT22;53450;42.584;23.366;2023-03-03T04:43:16;1.31;89.20
66594;DHT22;53450;42.584;23.366;2023-03-03T04:45:42;1.21;89.41
66594;DHT22;53450;42.584;23.366;2023-03-03T04:48:11;1.31;89.64
66594;DHT22;53450;42.584;23.366;2023-03-03T04:50:37;1.31;89.63
66594;DHT22;53450;42.584;23.366;2023-03-03T04:53:03;1.32;89.67
66594;DHT22;53450;42.584;23.366;2023-03-03T04:55:30;1.41;89.59
66594;DHT22;53450;42.584;23.366;2023-03-03T04:57:55;1.49;89.58
66594;DHT22;53450;42.584;23.366;2023-03-03T05:00:21;1.42;89.40
66594;DHT22;53450;42.584;23.366;2023-03-03T05:02:50;1.30;89.40
66594;DHT22;53450;42.584;23.366;2023-03-03T05:05:17;1.47;89.39
66594;DHT22;53450;42.584;23.366;2023-03-03T05:07:42;1.63;89.01
66594;DHT22;53450;42.584;23.366;2023-03-03T05:10:08;1.58;88.85
66594;DHT22;53450;42.584;23.366;2023-03-03T05:12:34;1.83;88.53
66594;DHT22;53450;42.584;23.366;2023-03-03T05:15:25;1.95;88.25
66594;DHT22;53450;42.584;23.366;2023-03-03T05:18:18;2.10;87.95
66594;DHT22;53450;42.584;23.366;2023-03-03T05:20:43;2.23;87.27
66594;DHT22;53450;42.584;23.366;2023-03-03T05:23:09;2.24;87.07
66594;DHT22;53450;42.584;23.366;2023-03-03T05:25:35;2.10;87.22
66594;DHT22;53450;42.584;23.366;2023-03-03T05:28:00;2.09;87.28
66594;DHT22;53450;42.584;23.366;2023-03-03T05:30:26;2.11;87.35
66594;DHT22;53450;42.584;23.366;2023-03-03T05:32:51;1.93;87.39
66594;DHT22;53450;42.584;23.366;2023-03-03T05:35:17;1.82;87.69
66594;DHT22;53450;42.584;23.366;2023-03-03T05:37:44;1.86;87.94
66594;DHT22;53450;42.584;23.366;2023-03-03T05:40:14;1.77;88.10
66594;DHT22;53450;42.584;23.366;2023-03-03T05:42:40;1.92;88.01
66594;DHT22;53450;42.584;23.366;2023-03-03T05:45:06;2.05;87.85
66594;DHT22;53450;42.584;23.366;2023-03-03T05:47:32;1.82;87.92
66594;DHT22;53450;42.584;23.366;2023-03-03T05:49:57;1.92;88.01
66594;DHT22;53450;42.584;23.366;2023-03-03T05:52:23;1.86;87.98
66594;DHT22;53450;42.584;23.366;2023-03-03T05:54:49;1.85;88.15
66594;DHT22;53450;42.584;23.366;2023-03-03T05:57:14;1.70;88.21
66594;DHT22;53450;42.584;23.366;2023-03-03T05:59:40;1.76;88.44
66594;DHT22;53450;42.584;23.366;2023-03-03T06:02:06;1.97;88.26
66594;DHT22;53450;42.584;23.366;2023-03-03T06:04:32;1.96;88.01
66594;DHT22;53450;42.584;23.366;2023-03-03T06:06:58;2.06;87.84
66594;DHT22;53450;42.584;23.366;2023-03-03T06:09:23;2.26;87.61
66594;DHT22;53450;42.584;23.366;2023-03-03T06:11:51;2.24;87.44
66594;DHT22;53450;42.584;23.366;2023-03-03T06:14:19;2.31;87.14
66594;DHT22;53450;42.584;23.366;2023-03-03T06:16:47;2.34;87.02
66594;DHT22;53450;42.584;23.366;2023-03-03T06:19:13;2.40;86.92
66594;DHT22;53450;42.584;23.366;2023-03-03T06:21:40;2.34;86.98
66594;DHT22;53450;42.584;23.366;2023-03-03T06:24:06;2.30;87.01
66594;DHT22;53450;42.584;23.366;2023-03-03T06:26:32;2.34;87.19
66594;DHT22;53450;42.584;23.366;2023-03-03T06:28:58;2.18;87.17
66594;DHT22;53450;42.584;23.366;2023-03-03T06:31:23;2.17;87.50
66594;DHT22;53450;42.584;23.366;2023-03-03T06:33:49;2.48;87.12
66594;DHT22;53450;42.584;23.366;2023-03-03T06:36:16;2.57;86.75
66594;DHT22;53450;42.584;23.366;2023-03-03T06:38:42;2.47;86.57
66594;DHT22;53450;42.584;23.366;2023-03-03T06:41:08;2.57;86.47
66594;DHT22;53450;42.584;23.366;2023-03-03T06:43:34;2.49;86.53
66594;DHT22;53450;42.584;23.366;2023-03-03T06:46:06;2.30;86.74
66594;DHT22;53450;42.584;23.366;2023-03-03T06:48:32;2.33;87.19
66594;DHT22;53450;42.584;23.366;2023-03-03T06:51:00;2.17;87.44
66594;DHT22;53450;42.584;23.366;2023-03-03T06:53:26;2.41;87.41
66594;DHT22;53450;42.584;23.366;2023-03-03T06:55:54;2.38;87.19
66594;DHT22;53450;42.584;23.366;2023-03-03T06:58:21;2.40;87.27
66594;DHT22;53450;42.584;23.366;2023-03-03T07:00:56;2.41;87.49
66594;DHT22;53450;42.584;23.366;2023-03-03T07:03:24;2.38;87.69
66594;DHT22;53450;42.584;23.366;2023-03-03T07:05:50;2.61;87.35
66594;DHT22;53450;42.584;23.366;2023-03-03T07:08:20;2.65;87.27
66594;DHT22;53450;42.584;23.366;2023-03-03T07:10:50;2.79;87.10
66594;DHT22;53450;42.584;23.366;2023-03-03T07:13:26;2.85;86.82
66594;DHT22;53450;42.584;23.366;2023-03-03T07:15:54;2.93;86.71
66594;DHT22;53450;42.584;23.366;2023-03-03T07:18:49;2.57;87.13
66594;DHT22;53450;42.584;23.366;2023-03-03T07:21:21;2.85;86.53
66594;DHT22;53450;42.584;23.366;2023-03-03T07:23:51;2.68;87.17
66594;DHT22;53450;42.584;23.366;2023-03-03T07:26:25;2.72;87.37
66594;DHT22;53450;42.584;23.366;2023-03-03T07:29:03;2.69;87.35
66594;DHT22;53450;42.584;23.366;2023-03-03T07:31:38;2.74;87.44
66594;DHT22;53450;42.584;23.366;2023-03-03T07:36:43;2.99;87.44
66594;DHT22;53450;42.584;23.366;2023-03-03T07:39:33;2.93;87.10
66594;DHT22;53450;42.584;23.366;2023-03-03T07:45:31;3.09;87.30
66594;DHT22;53450;42.584;23.366;2023-03-03T07:50:48;3.02;86.94
66594;DHT22;53450;42.584;23.366;2023-03-03T07:55:48;3.03;87.19
66594;DHT22;53450;42.584;23.366;2023-03-03T08:03:18;3.15;86.71
66594;DHT22;53450;42.584;23.366;2023-03-03T08:05:48;3.07;86.96
66594;DHT22;53450;42.584;23.366;2023-03-03T08:08:26;3.30;86.89
66594;DHT22;53450;42.584;23.366;2023-03-03T08:10:58;3.45;86.65
66594;DHT22;53450;42.584;23.366;2023-03-03T08:13:36;3.44;86.46
66594;DHT22;53450;42.584;23.366;2023-03-03T08:18:45;3.64;86.12
66594;DHT22;53450;42.584;23.366;2023-03-03T08:21:14;3.68;85.72
66594;DHT22;53450;42.584;23.366;2023-03-03T08:23:40;3.70;85.86
66594;DHT22;53450;42.584;23.366;2023-03-03T08:26:06;3.64;85.48
66594;DHT22;53450;42.584;23.366;2023-03-03T08:28:32;3.60;85.71
66594;DHT22;53450;42.584;23.366;2023-03-03T08:30:57;3.70;85.93
66594;DHT22;53450;42.584;23.366;2023-03-03T08:33:23;3.82;85.90
66594;DHT22;53450;42.584;23.366;2023-03-03T08:36:13;3.64;86.43
66594;DHT22;53450;42.584;23.366;2023-03-03T08:38:39;3.61;86.55
66594;DHT22;53450;42.584;23.366;2023-03-03T08:41:05;3.50;86.67
66594;DHT22;53450;42.584;23.366;2023-03-03T08:43:31;3.51;86.70
66594;DHT22;53450;42.584;23.366;2023-03-03T08:45:58;3.50;86.40
66594;DHT22;53450;42.584;23.366;2023-03-03T08:48:25;3.44;86.76
66594;DHT22;53450;42.584;23.366;2023-03-03T08:50:51;3.30;86.63
66594;DHT22;53450;42.584;23.366;2023-03-03T08:53:18;3.23;86.84
66594;DHT22;53450;42.584;23.366;2023-03-03T08:55:44;3.28;87.12
66594;DHT22;53450;42.584;23.366;2023-03-03T08:58:09;3.33;87.55
66594;DHT22;53450;42.584;23.366;2023-03-03T09:00:35;3.44;86.94
66594;DHT22;53450;42.584;23.366;2023-03-03T09:03:01;3.53;87.09
66594;DHT22;53450;42.584;23.366;2023-03-03T09:05:27;3.38;87.06
66594;DHT22;53450;42.584;23.366;2023-03-03T09:07:53;3.33;87.03
66594;DHT22;53450;42.584;23.366;2023-03-03T09:10:22;3.50;86.96
66594;DHT22;53450;42.584;23.366;2023-03-03T09:12:52;3.71;86.27
66594;DHT22;53450;42.584;23.366;2023-03-03T09:15:22;3.73;85.65
66594;DHT22;53450;42.584;23.366;2023-03-03T09:17:49;3.91;85.48
66594;DHT22;53450;42.584;23.366;2023-03-03T09:20:33;4.02;85.40
66594;DHT22;53450;42.584;23.366;2023-03-03T09:23:20;4.01;85.19
66594;DHT22;53450;42.584;23.366;2023-03-03T09:25:49;3.84;85.66
66594;DHT22;53450;42.584;23.366;2023-03-03T09:28:23;3.73;86.50
66594;DHT22;53450;42.584;23.366;2023-03-03T09:30:51;3.53;86.66
66594;DHT22;53450;42.584;23.366;2023-03-03T09:33:24;3.79;85.74
66594;DHT22;53450;42.584;23.366;2023-03-03T09:38:39;3.86;85.59
66594;DHT22;53450;42.584;23.366;2023-03-03T10:05:20;3.82;87.08
66594;DHT22;53450;42.584;23.366;2023-03-03T10:08:08;4.02;86.19
66594;DHT22;53450;42.584;23.366;2023-03-03T10:19:30;3.99;87.32
66594;DHT22;53450;42.584;23.366;2023-03-03T10:22:51;4.19;86.58
66594;DHT22;53450;42.584;23.366;2023-03-03T10:36:08;4.15;86.09
66594;DHT22;53450;42.584;23.366;2023-03-03T10:41:54;4.17;85.90
66594;DHT22;53450;42.584;23.366;2023-03-03T10:51:15;4.09;86.51
66594;DHT22;53450;42.584;23.366;2023-03-03T10:56:38;4.26;85.78
66594;DHT22;53450;42.584;23.366;2023-03-03T11:02:00;4.05;86.40
66594;DHT22;53450;42.584;23.366;2023-03-03T11:15:41;3.91;87.35
66594;DHT22;53450;42.584;23.366;2023-03-03T11:18:20;3.88;87.44
66594;DHT22;53450;42.584;23.366;2023-03-03T11:23:49;3.85;87.13
66594;DHT22;53450;42.584;23.366;2023-03-03T11:31:54;3.77;87.17
66594;DHT22;53450;42.584;23.366;2023-03-03T11:34:36;3.96;87.07
66594;DHT22;53450;42.584;23.366;2023-03-03T11:37:08;3.91;85.81
66594;DHT22;53450;42.584;23.366;2023-03-03T11:39:34;3.95;86.11
66594;DHT22;53450;42.584;23.366;2023-03-03T11:44:45;3.88;86.38
66594;DHT22;53450;42.584;23.366;2023-03-03T11:55:32;4.22;85.49
66594;DHT22;53450;42.584;23.366;2023-03-03T12:03:28;4.67;85.24
66594;DHT22;53450;42.584;23.366;2023-03-03T12:06:22;4.42;84.74
66594;DHT22;53450;42.584;23.366;2023-03-03T12:09:10;4.30;85.25
66594;DHT22;53450;42.584;23.366;2023-03-03T12:25:42;4.44;86.75
66594;DHT22;53450;42.584;23.366;2023-03-03T12:28:21;4.44;86.05
66594;DHT22;53450;42.584;23.366;2023-03-03T12:33:58;4.20;86.63
66594;DHT22;53450;42.584;23.366;2023-03-03T12:39:14;4.20;87.18
66594;DHT22;53450;42.584;23.366;2023-03-03T12:44:27;4.30;86.96
66594;DHT22;53450;42.584;23.366;2023-03-03T12:50:00;4.53;86.62
66594;DHT22;53450;42.584;23.366;2023-03-03T12:55:23;4.36;86.18
66594;DHT22;53450;42.584;23.366;2023-03-03T12:57:53;4.43;86.03
66594;DHT22;53450;42.584;23.366;2023-03-03T13:01:04;4.65;85.98
66594;DHT22;53450;42.584;23.366;2023-03-03T13:03:39;4.70;86.21
66594;DHT22;53450;42.584;23.366;2023-03-03T13:06:14;4.77;86.58
66594;DHT22;53450;42.584;23.366;2023-03-03T13:11:57;4.60;86.08
66594;DHT22;53450;42.584;23.366;2023-03-03T13:14:55;4.29;86.85
66594;DHT22;53450;42.584;23.366;2023-03-03T13:20:37;4.23;87.41
66594;DHT22;53450;42.584;23.366;2023-03-03T13:26:05;4.09;87.33
66594;DHT22;53450;42.584;23.366;2023-03-03T13:28:41;4.23;87.43
66594;DHT22;53450;42.584;23.366;2023-03-03T13:31:19;4.26;87.47
66594;DHT22;53450;42.584;23.366;2023-03-03T13:33:54;4.07;86.66
66594;DHT22;53450;42.584;23.366;2023-03-03T13:36:24;4.23;87.02
66594;DHT22;53450;42.584;23.366;2023-03-03T13:38:55;4.44;86.58
66594;DHT22;53450;42.584;23.366;2023-03-03T13:44:41;4.64;85.93
66594;DHT22;53450;42.584;23.366;2023-03-03T13:48:00;4.40;85.72
66594;DHT22;53450;42.584;23.366;2023-03-03T13:50:21;4.39;85.83
66594;DHT22;53450;42.584;23.366;2023-03-03T13:53:00;4.44;85.88
66594;DHT22;53450;42.584;23.366;2023-03-03T13:55:35;4.65;85.41
66594;DHT22;53450;42.584;23.366;2023-03-03T14:01:14;4.39;85.76
66594;DHT22;53450;42.584;23.366;2023-03-03T14:03:48;4.42;86.17
66594;DHT22;53450;42.584;23.366;2023-03-03T14:06:21;4.61;85.44
66594;DHT22;53450;42.584;23.366;2023-03-03T14:08:57;4.64;84.50
66594;DHT22;53450;42.584;23.366;2023-03-03T14:11:47;4.73;84.32
66594;DHT22;53450;42.584;23.366;2023-03-03T14:17:17;4.85;84.44
66594;DHT22;53450;42.584;23.366;2023-03-03T14:22:56;4.95;84.07
66594;DHT22;53450;42.584;23.366;2023-03-03T14:25:22;4.98;84.50
66594;DHT22;53450;42.584;23.366;2023-03-03T14:28:01;4.87;84.42
66594;DHT22;53450;42.584;23.366;2023-03-03T14:30:37;4.80;84.41
66594;DHT22;53450;42.584;23.366;2023-03-03T14:35:37;4.73;85.46
66594;DHT22;53450;42.584;23.366;2023-03-03T14:38:24;4.80;85.59
66594;DHT22;53450;42.584;23.366;2023-03-03T14:41:14;4.64;86.50
66594;DHT22;53450;42.584;23.366;2023-03-03T14:43:58;4.53;87.12
66594;DHT22;53450;42.584;23.366;2023-03-03T14:46:31;4.54;87.25
66594;DHT22;53450;42.584;23.366;2023-03-03T14:49:27;4.53;87.08
66594;DHT22;53450;42.584;23.366;2023-03-03T14:54:41;4.44;86.62
66594;DHT22;53450;42.584;23.366;2023-03-03T15:03:03;4.37;87.67
66594;DHT22;53450;42.584;23.366;2023-03-03T15:05:35;4.50;87.47
66594;DHT22;53450;42.584;23.366;2023-03-03T15:10:35;4.37;87.57
66594;DHT22;53450;42.584;23.366;2023-03-03T15:15:50;4.42;87.61
66594;DHT22;53450;42.584;23.366;2023-03-03T15:18:16;4.42;87.78
66594;DHT22;53450;42.584;23.366;2023-03-03T15:21:04;4.43;87.78
66594;DHT22;53450;42.584;23.366;2023-03-03T15:27:01;4.64;87.45
66594;DHT22;53450;42.584;23.366;2023-03-03T15:34:56;4.40;87.82
66594;DHT22;53450;42.584;23.366;2023-03-03T15:37:37;4.33;87.77
66594;DHT22;53450;42.584;23.366;2023-03-03T15:49:08;4.60;87.82
66594;DHT22;53450;42.584;23.366;2023-03-03T15:51:55;4.42;87.99
66594;DHT22;53450;42.584;23.366;2023-03-03T16:16:46;4.02;89.43
66594;DHT22;53450;42.584;23.366;2023-03-03T16:25:23;3.92;90.18
66594;DHT22;53450;42.584;23.366;2023-03-03T16:28:21;3.96;90.34
66594;DHT22;53450;42.584;23.366;2023-03-03T16:30:57;4.03;90.20
66594;DHT22;53450;42.584;23.366;2023-03-03T16:39:00;4.07;89.52
66594;DHT22;53450;42.584;23.366;2023-03-03T16:41:43;4.10;89.50
66594;DHT22;53450;42.584;23.366;2023-03-03T16:47:12;3.95;89.74
66594;DHT22;53450;42.584;23.366;2023-03-03T16:52:49;3.84;89.83
66594;DHT22;53450;42.584;23.366;2023-03-03T16:55:35;3.85;90.16
66594;DHT22;53450;42.584;23.366;2023-03-03T16:58:25;3.94;90.39
66594;DHT22;53450;42.584;23.366;2023-03-03T17:03:57;4.09;89.72
66594;DHT22;53450;42.584;23.366;2023-03-03T17:07:48;4.02;89.83
66594;DHT22;53450;42.584;23.366;2023-03-03T17:20:29;4.33;89.07
66594;DHT22;53450;42.584;23.366;2023-03-03T17:31:47;4.33;88.89
66594;DHT22;53450;42.584;23.366;2023-03-03T17:45:45;4.34;88.23
66594;DHT22;53450;42.584;23.366;2023-03-03T18:05:42;4.17;88.95
66594;DHT22;53450;42.584;23.366;2023-03-03T18:08:34;4.23;88.99
66594;DHT22;53450;42.584;23.366;2023-03-03T18:22:43;4.15;88.86
66594;DHT22;53450;42.584;23.366;2023-03-03T18:25:15;4.15;89.14
66594;DHT22;53450;42.584;23.366;2023-03-03T18:27:43;4.20;89.24
66594;DHT22;53450;42.584;23.366;2023-03-03T18:30:13;4.23;89.12
66594;DHT22;53450;42.584;23.366;2023-03-03T18:32:57;4.16;88.88
66594;DHT22;53450;42.584;23.366;2023-03-03T18:35:35;4.17;88.73
66594;DHT22;53450;42.584;23.366;2023-03-03T18:41:18;4.32;88.13
66594;DHT22;53450;42.584;23.366;2023-03-03T18:44:27;4.40;86.19
66594;DHT22;53450;42.584;23.366;2023-03-03T18:46:54;4.46;85.47
66594;DHT22;53450;42.584;23.366;2023-03-03T18:49:47;4.52;85.45
66594;DHT22;53450;42.584;23.366;2023-03-03T18:52:27;4.47;85.11
66594;DHT22;53450;42.584;23.366;2023-03-03T18:55:20;4.49;85.86
66594;DHT22;53450;42.584;23.366;2023-03-03T19:05:56;4.30;87.31
66594;DHT22;53450;42.584;23.366;2023-03-03T19:09:04;4.40;87.28
66594;DHT22;53450;42.584;23.366;2023-03-03T19:11:48;4.44;87.00
66594;DHT22;53450;42.584;23.366;2023-03-03T19:20:04;4.29;87.18
66594;DHT22;53450;42.584;23.366;2023-03-03T19:22:48;4.23;87.63
66594;DHT22;53450;42.584;23.366;2023-03-03T19:25:40;4.32;87.53
66594;DHT22;53450;42.584;23.366;2023-03-03T19:28:35;4.43;87.13
66594;DHT22;53450;42.584;23.366;2023-03-03T19:31:17;4.44;86.71
66594;DHT22;53450;42.584;23.366;2023-03-03T19:36:49;4.10;87.68
66594;DHT22;53450;42.584;23.366;2023-03-03T19:39:33;4.07;87.76
66594;DHT22;53450;42.584;23.366;2023-03-03T19:42:43;4.06;87.86
66594;DHT22;53450;42.584;23.366;2023-03-03T19:45:33;4.17;87.47
66594;DHT22;53450;42.584;23.366;2023-03-03T19:54:36;4.20;87.71
66594;DHT22;53450;42.584;23.366;2023-03-03T19:57:27;4.05;87.79
66594;DHT22;53450;42.584;23.366;2023-03-03T20:06:00;4.28;87.39
66594;DHT22;53450;42.584;23.366;2023-03-03T20:14:38;4.43;86.85
66594;DHT22;53450;42.584;23.366;2023-03-03T20:18:09;4.44;86.52
66594;DHT22;53450;42.584;23.366;2023-03-03T20:31:49;4.22;86.43
66594;DHT22;53450;42.584;23.366;2023-03-03T20:51:02;4.01;87.69
66594;DHT22;53450;42.584;23.366;2023-03-03T20:53:44;3.79;87.89
66594;DHT22;53450;42.584;23.366;2023-03-03T20:56:16;3.73;88.33
66594;DHT22;53450;42.584;23.366;2023-03-03T21:01:52;3.64;88.74
66594;DHT22;53450;42.584;23.366;2023-03-03T21:04:29;3.73;88.90
66594;DHT22;53450;42.584;23.366;2023-03-03T21:06:56;3.73;88.75
66594;DHT22;53450;42.584;23.366;2023-03-03T21:09:31;3.86;88.75
66594;DHT22;53450;42.584;23.366;2023-03-03T21:11:59;3.89;88.50
66594;DHT22;53450;42.584;23.366;2023-03-03T21:14:32;3.79;88.38
66594;DHT22;53450;42.584;23.366;2023-03-03T21:16:59;3.96;88.14
66594;DHT22;53450;42.584;23.366;2023-03-03T21:19:34;4.01;86.74
66594;DHT22;53450;42.584;23.366;2023-03-03T21:22:03;3.95;86.81
66594;DHT22;53450;42.584;23.366;2023-03-03T21:24:55;3.95;86.88
66594;DHT22;53450;42.584;23.366;2023-03-03T21:27:29;4.01;87.04
66594;DHT22;53450;42.584;23.366;2023-03-03T21:30:21;4.06;86.97
66594;DHT22;53450;42.584;23.366;2023-03-03T21:32:52;4.10;86.10
66594;DHT22;53450;42.584;23.366;2023-03-03T21:35:22;4.16;85.27
66594;DHT22;53450;42.584;23.366;2023-03-03T21:37:51;4.15;85.66
66594;DHT22;53450;42.584;23.366;2023-03-03T21:40:42;4.17;86.08
66594;DHT22;53450;42.584;23.366;2023-03-03T21:43:40;4.23;86.26
66594;DHT22;53450;42.584;23.366;2023-03-03T21:46:07;4.28;85.06
66594;DHT22;53450;42.584;23.366;2023-03-03T21:48:33;4.19;85.78
66594;DHT22;53450;42.584;23.366;2023-03-03T21:51:19;4.01;86.30
66594;DHT22;53450;42.584;23.366;2023-03-03T21:53:48;4.09;86.37
66594;DHT22;53450;42.584;23.366;2023-03-03T21:56:14;4.06;86.41
66594;DHT22;53450;42.584;23.366;2023-03-03T21:58:41;3.96;86.65
66594;DHT22;53450;42.584;23.366;2023-03-03T22:01:09;3.85;87.19
66594;DHT22;53450;42.584;23.366;2023-03-03T22:03:35;3.79;87.64
66594;DHT22;53450;42.584;23.366;2023-03-03T22:06:02;3.88;87.85
66594;DHT22;53450;42.584;23.366;2023-03-03T22:08:28;3.88;88.09
66594;DHT22;53450;42.584;23.366;2023-03-03T22:10:54;3.89;88.52
66594;DHT22;53450;42.584;23.366;2023-03-03T22:13:45;4.01;88.75
66594;DHT22;53450;42.584;23.366;2023-03-03T22:16:11;4.09;88.44
66594;DHT22;53450;42.584;23.366;2023-03-03T22:18:37;3.91;88.49
66594;DHT22;53450;42.584;23.366;2023-03-03T22:21:03;3.94;88.76
66594;DHT22;53450;42.584;23.366;2023-03-03T22:23:30;3.95;88.85
66594;DHT22;53450;42.584;23.366;2023-03-03T22:25:56;3.91;88.89
66594;DHT22;53450;42.584;23.366;2023-03-03T22:28:22;3.96;88.84
66594;DHT22;53450;42.584;23.366;2023-03-03T22:30:49;3.92;88.90
66594;DHT22;53450;42.584;23.366;2023-03-03T22:33:17;3.89;88.90